Time;durP1;ratioP1;P1;durP2;ratioP2;P2;SDS_P1;SDS_P2;PMS_P1;PMS_P2;Temp;Humidity;BMP_temperature;BMP_pressure;BME280_temperature;BME280_humidity;BME280_pressure;Samples;Min_cycle;Max_cycle;Signal;HPM_P1;HPM_P2
2023/10/02 00:09:34;;;;;;;6.4;2.3;;;;;;;10.96;89.41;;;;;
2023/10/02 00:20:33;;;;;;;6.4;2.3;;;;;;;11.19;89.35;;;;;
2023/10/02 00:30:36;;;;;;;6.4;2.3;;;;;;;11.27;89.39;;;;;
2023/10/02 00:41:33;;;;;;;6.1;2.8;;;;;;;11.37;88.65;;;;;
2023/10/02 00:51:33;;;;;;;6.1;2.8;;;;;;;11.47;88.3;;;;;
2023/10/02 01:02:35;;;;;;;6.1;2.8;;;;;;;11.29;88.83;;;;;
2023/10/02 01:12:43;;;;;;;5.1;2.9;;;;;;;11.43;88.84;;;;;
2023/10/02 01:23:33;;;;;;;5.1;2.9;;;;;;;11.63;88.5;;;;;
2023/10/02 01:34:33;;;;;;;5.1;2.9;;;;;;;11.66;87.92;;;;;
2023/10/02 01:45:34;;;;;;;7.7;4.3;;;;;;;11.5;88.2;;;;;
2023/10/02 01:55:35;;;;;;;7.7;4.3;;;;;;;11.62;88.35;;;;;
2023/10/02 02:06:34;;;;;;;5.6;3;;;;;;;11.75;87.84;;;;;
2023/10/02 02:16:33;;;;;;;5.6;3;;;;;;;11.77;87.94;;;;;
2023/10/02 02:27:33;;;;;;;5.6;3;;;;;;;11.85;87.91;;;;;
2023/10/02 02:37:33;;;;;;;6.5;3.2;;;;;;;11.84;88.03;;;;;
2023/10/02 02:48:43;;;;;;;6.5;3.2;;;;;;;11.81;88.06;;;;;
2023/10/02 02:58:34;;;;;;;6.5;3.2;;;;;;;11.79;88.3;;;;;
2023/10/02 03:08:37;;;;;;;4.8;3.1;;;;;;;11.82;88.42;;;;;
2023/10/02 03:19:33;;;;;;;4.8;3.1;;;;;;;11.89;88.01;;;;;
2023/10/02 03:29:33;;;;;;;4.8;3.1;;;;;;;11.88;88.63;;;;;
2023/10/02 03:40:34;;;;;;;5.1;2.7;;;;;;;12;88.24;;;;;
2023/10/02 03:50:37;;;;;;;5.1;2.7;;;;;;;12.04;88.24;;;;;
2023/10/02 04:00:43;;;;;;;5.1;2.7;;;;;;;12;87.94;;;;;
2023/10/02 04:11:33;;;;;;;7.5;3.4;;;;;;;12.05;88.45;;;;;
2023/10/02 04:22:35;;;;;;;7.5;3.4;;;;;;;12.05;88.26;;;;;
2023/10/02 04:33:38;;;;;;;7.5;3.4;;;;;;;12.06;88.82;;;;;
2023/10/02 04:43:34;;;;;;;6.4;3.3;;;;;;;12.12;88.98;;;;;
2023/10/02 04:53:34;;;;;;;6.4;3.3;;;;;;;12.39;88.89;;;;;
2023/10/02 05:04:33;;;;;;;6.4;3.3;;;;;;;12.5;88.62;;;;;
2023/10/02 05:14:48;;;;;;;6.7;3.1;;;;;;;12.75;88.67;;;;;
2023/10/02 05:24:34;;;;;;;6.7;3.1;;;;;;;12.84;88.58;;;;;
2023/10/02 05:34:34;;;;;;;6.7;3.1;;;;;;;12.94;88.53;;;;;
2023/10/02 05:44:33;;;;;;;8.1;3.8;;;;;;;13.13;88.18;;;;;
2023/10/02 05:55:56;;;;;;;8.1;3.8;;;;;;;13.38;87.47;;;;;
2023/10/02 06:06:35;;;;;;;8.2;4.5;;;;;;;13.48;87.49;;;;;
2023/10/02 06:16:34;;;;;;;8.2;4.5;;;;;;;13.97;87.42;;;;;
2023/10/02 06:26:49;;;;;;;8.2;4.5;;;;;;;14.28;86.34;;;;;
2023/10/02 06:36:45;;;;;;;10.5;5.5;;;;;;;14.81;85.84;;;;;
2023/10/02 06:46:33;;;;;;;10.5;5.5;;;;;;;15.22;84.31;;;;;
2023/10/02 06:56:33;;;;;;;10.5;5.5;;;;;;;15.52;83.41;;;;;
2023/10/02 07:07:33;;;;;;;10.4;6.2;;;;;;;15.81;80.95;;;;;
2023/10/02 07:17:33;;;;;;;10.4;6.2;;;;;;;16.16;79.63;;;;;
2023/10/02 07:28:48;;;;;;;10.4;6.2;;;;;;;16.37;77.09;;;;;
2023/10/02 07:39:35;;;;;;;7.8;4.5;;;;;;;16.73;75.17;;;;;
2023/10/02 07:49:34;;;;;;;7.8;4.5;;;;;;;17.41;74.82;;;;;
2023/10/02 08:00:33;;;;;;;7.8;4.5;;;;;;;17.81;74.58;;;;;
2023/10/02 08:10:48;;;;;;;7.4;3.4;;;;;;;18.01;73.66;;;;;
2023/10/02 08:20:37;;;;;;;7.4;3.4;;;;;;;18.27;71.7;;;;;
2023/10/02 08:31:33;;;;;;;7.4;3.4;;;;;;;18.53;70.37;;;;;
2023/10/02 08:42:33;;;;;;;10.5;4.6;;;;;;;18.88;69.38;;;;;
2023/10/02 08:53:33;;;;;;;10.5;4.6;;;;;;;19.41;67.03;;;;;
2023/10/02 09:04:33;;;;;;;10.5;4.6;;;;;;;19.66;68.73;;;;;
2023/10/02 09:14:41;;;;;;;11.5;5.9;;;;;;;20.17;66.95;;;;;
2023/10/02 09:24:35;;;;;;;11.5;5.9;;;;;;;20.2;67.01;;;;;
2023/10/02 09:35:39;;;;;;;11.2;5.5;;;;;;;20.22;64.13;;;;;
2023/10/02 09:45:37;;;;;;;11.2;5.5;;;;;;;20.89;63.13;;;;;
2023/10/02 09:56:33;;;;;;;11.2;5.5;;;;;;;20.64;62.27;;;;;
2023/10/02 10:07:37;;;;;;;8.3;3.8;;;;;;;20.43;62.14;;;;;
2023/10/02 10:17:49;;;;;;;8.3;3.8;;;;;;;20.46;63.78;;;;;
2023/10/02 10:28:35;;;;;;;8.3;3.8;;;;;;;20.29;63.98;;;;;
2023/10/02 10:39:34;;;;;;;7.5;3.7;;;;;;;20.6;63.62;;;;;
2023/10/02 10:50:33;;;;;;;7.5;3.7;;;;;;;20.5;64.06;;;;;
2023/10/02 11:00:39;;;;;;;7.5;3.7;;;;;;;20.64;62.96;;;;;
2023/10/02 11:10:34;;;;;;;5.4;3.4;;;;;;;20.6;64.95;;;;;
2023/10/02 11:21:44;;;;;;;5.4;3.4;;;;;;;20.95;64.8;;;;;
2023/10/02 11:31:35;;;;;;;5.4;3.4;;;;;;;21.18;62.75;;;;;
2023/10/02 11:41:33;;;;;;;5.8;3.1;;;;;;;21.23;63.12;;;;;
2023/10/02 11:52:33;;;;;;;5.8;3.1;;;;;;;21.44;63.55;;;;;
2023/10/02 12:02:33;;;;;;;5.8;3.1;;;;;;;21.74;62.93;;;;;
2023/10/02 12:12:33;;;;;;;5.9;2.9;;;;;;;21.62;62.25;;;;;
2023/10/02 12:23:39;;;;;;;5.9;2.9;;;;;;;22.14;61.03;;;;;
2023/10/02 12:33:35;;;;;;;5.9;2.9;;;;;;;22.15;61.66;;;;;
2023/10/02 12:43:35;;;;;;;9.1;3.3;;;;;;;22.24;59.5;;;;;
2023/10/02 12:54:33;;;;;;;9.1;3.3;;;;;;;22.48;59.3;;;;;
2023/10/02 13:04:33;;;;;;;9.1;3.3;;;;;;;21.81;59.52;;;;;
2023/10/02 13:14:33;;;;;;;7.7;2.5;;;;;;;22.1;61.52;;;;;
2023/10/02 13:24:34;;;;;;;7.7;2.5;;;;;;;21.76;61.07;;;;;
2023/10/02 13:35:34;;;;;;;5.6;2.6;;;;;;;21.55;61.62;;;;;
2023/10/02 13:46:38;;;;;;;5.6;2.6;;;;;;;21.63;61.84;;;;;
2023/10/02 13:56:35;;;;;;;5.6;2.6;;;;;;;21.94;63.64;;;;;
2023/10/02 14:07:36;;;;;;;4.1;1.7;;;;;;;22.08;61.1;;;;;
2023/10/02 14:18:35;;;;;;;4.1;1.7;;;;;;;21.99;60.35;;;;;
2023/10/02 14:29:33;;;;;;;4.1;1.7;;;;;;;22.09;60.09;;;;;
2023/10/02 14:39:35;;;;;;;4;1.6;;;;;;;22.11;60.25;;;;;
2023/10/02 14:50:34;;;;;;;4;1.6;;;;;;;22.08;63.95;;;;;
2023/10/02 15:00:34;;;;;;;4;1.6;;;;;;;21.71;60.65;;;;;
2023/10/02 15:11:36;;;;;;;4;1.6;;;;;;;21.57;65;;;;;
2023/10/02 15:22:35;;;;;;;4;1.6;;;;;;;21.38;66.24;;;;;
2023/10/02 15:33:35;;;;;;;4;1.6;;;;;;;20.61;68.02;;;;;
2023/10/02 15:43:35;;;;;;;14.8;6.4;;;;;;;19.81;71;;;;;
2023/10/02 15:54:34;;;;;;;14.8;6.4;;;;;;;19.03;71.45;;;;;
2023/10/02 16:05:34;;;;;;;14.8;6.4;;;;;;;18.41;72.31;;;;;
2023/10/02 16:16:34;;;;;;;9.7;5.6;;;;;;;17.85;75.86;;;;;
2023/10/02 16:26:34;;;;;;;9.7;5.6;;;;;;;17.36;77.77;;;;;
2023/10/02 16:37:34;;;;;;;6.5;2.9;;;;;;;16.96;80.59;;;;;
2023/10/02 16:48:35;;;;;;;6.5;2.9;;;;;;;16.57;82.59;;;;;
2023/10/02 16:58:34;;;;;;;6.5;2.9;;;;;;;16.4;82.35;;;;;
2023/10/02 17:08:34;;;;;;;5.8;2.9;;;;;;;16.15;82.37;;;;;
2023/10/02 17:19:34;;;;;;;5.8;2.9;;;;;;;15.99;83.02;;;;;
2023/10/02 17:30:34;;;;;;;5.8;2.9;;;;;;;15.96;83.94;;;;;
2023/10/02 17:40:34;;;;;;;6.7;3.5;;;;;;;16.03;84.23;;;;;
2023/10/02 17:51:36;;;;;;;6.7;3.5;;;;;;;16.17;83.95;;;;;
2023/10/02 18:02:35;;;;;;;6.7;3.5;;;;;;;16.25;83.11;;;;;
2023/10/02 18:12:35;;;;;;;10.7;7.1;;;;;;;16.33;82.77;;;;;
2023/10/02 18:23:36;;;;;;;10.7;7.1;;;;;;;16.28;82.5;;;;;
2023/10/02 18:34:34;;;;;;;10.7;7.1;;;;;;;16.03;82.58;;;;;
2023/10/02 18:45:34;;;;;;;17.2;14.5;;;;;;;15.78;82.51;;;;;
2023/10/02 18:55:34;;;;;;;17.2;14.5;;;;;;;15.53;83.13;;;;;
2023/10/02 19:06:34;;;;;;;6.4;3.5;;;;;;;15.3;84.02;;;;;
2023/10/02 19:17:34;;;;;;;6.4;3.5;;;;;;;15.08;84.8;;;;;
2023/10/02 19:27:34;;;;;;;6.4;3.5;;;;;;;14.84;84.73;;;;;
2023/10/02 19:38:35;;;;;;;6.6;4.3;;;;;;;14.58;85.03;;;;;
2023/10/02 19:49:34;;;;;;;6.6;4.3;;;;;;;14.36;86.15;;;;;
2023/10/02 20:00:34;;;;;;;6.6;4.3;;;;;;;14.11;87.35;;;;;
2023/10/02 20:11:34;;;;;;;8.3;4.7;;;;;;;13.91;87.49;;;;;
2023/10/02 20:21:34;;;;;;;8.3;4.7;;;;;;;13.79;89.33;;;;;
2023/10/02 20:32:35;;;;;;;8.3;4.7;;;;;;;13.69;89.92;;;;;
2023/10/02 20:43:34;;;;;;;11.3;5.3;;;;;;;13.57;90.54;;;;;
2023/10/02 20:53:34;;;;;;;11.3;5.3;;;;;;;13.46;90.35;;;;;
2023/10/02 21:04:34;;;;;;;11.3;5.3;;;;;;;13.41;90.9;;;;;
2023/10/02 21:15:35;;;;;;;9;4.3;;;;;;;13.27;90.76;;;;;
2023/10/02 21:25:34;;;;;;;9;4.3;;;;;;;13.18;90.89;;;;;
2023/10/02 21:36:38;;;;;;;9.9;3.7;;;;;;;13.05;90.87;;;;;
2023/10/02 21:47:34;;;;;;;9.9;3.7;;;;;;;13;91.47;;;;;
2023/10/02 21:57:34;;;;;;;9.9;3.7;;;;;;;13.01;91.81;;;;;
2023/10/02 22:07:34;;;;;;;7;3.5;;;;;;;12.97;92.02;;;;;
2023/10/02 22:18:34;;;;;;;7;3.5;;;;;;;12.92;91.65;;;;;
2023/10/02 22:28:34;;;;;;;7;3.5;;;;;;;12.82;91.23;;;;;
2023/10/02 22:39:34;;;;;;;7;3.4;;;;;;;12.73;90.76;;;;;
2023/10/02 22:49:35;;;;;;;7;3.4;;;;;;;12.67;90.64;;;;;
2023/10/02 22:59:36;;;;;;;7;3.4;;;;;;;12.63;90.91;;;;;
2023/10/02 23:10:35;;;;;;;6.3;3;;;;;;;12.5;90.61;;;;;
2023/10/02 23:21:34;;;;;;;6.3;3;;;;;;;12.43;90.59;;;;;
2023/10/02 23:32:34;;;;;;;6.3;3;;;;;;;12.33;90.63;;;;;
2023/10/02 23:43:34;;;;;;;9.1;4;;;;;;;12.32;90.67;;;;;
2023/10/02 23:54:36;;;;;;;9.1;4;;;;;;;12.34;91.05;;;;;
